Time;durP1;ratioP1;P1;durP2;ratioP2;P2;SDS_P1;SDS_P2;PMS_P1;PMS_P2;Temp;Humidity;BMP_temperature;BMP_pressure;BME280_temperature;BME280_humidity;BME280_pressure;Samples;Min_cycle;Max_cycle;Signal;HPM_P1;HPM_P2
2023/03/15 00:00:22;;;;;;;6.10;2.58;;;6.80;99.90;;;;;;4923387;29;20036;-72
2023/03/15 00:02:48;;;;;;;5.28;1.95;;;6.90;99.90;;;;;;4906225;29;20035;-72
2023/03/15 00:05:13;;;;;;;6.85;2.10;;;6.90;99.90;;;;;;4905494;29;20040;-73
2023/03/15 00:07:40;;;;;;;5.72;2.13;;;7.00;99.90;;;;;;4923156;29;20020;-73
2023/03/15 00:10:06;;;;;;;5.15;2.30;;;7.00;99.90;;;;;;4920945;29;20043;-75
2023/03/15 00:12:33;;;;;;;7.90;2.72;;;7.00;99.90;;;;;;4923009;29;20013;-74
2023/03/15 00:14:59;;;;;;;3.42;2.08;;;7.10;99.90;;;;;;4922487;29;20043;-74
2023/03/15 00:17:24;;;;;;;3.92;1.98;;;7.10;99.90;;;;;;4890574;29;20036;-74
2023/03/15 00:19:50;;;;;;;5.15;2.20;;;7.00;99.90;;;;;;4905451;29;20063;-74
2023/03/15 00:22:16;;;;;;;4.53;2.15;;;7.00;99.90;;;;;;4922718;29;20028;-74
2023/03/15 00:24:41;;;;;;;6.35;2.70;;;7.00;99.90;;;;;;4922910;29;20425;-74
2023/03/15 00:27:07;;;;;;;5.82;2.97;;;7.00;99.90;;;;;;4905614;29;20028;-73
2023/03/15 00:29:33;;;;;;;5.43;2.15;;;7.10;99.90;;;;;;4922580;29;20042;-74
2023/03/15 00:31:58;;;;;;;6.15;2.25;;;7.00;99.90;;;;;;4922653;29;20497;-74
2023/03/15 00:34:24;;;;;;;5.07;2.15;;;6.90;99.90;;;;;;4904661;29;20091;-72
2023/03/15 00:36:52;;;;;;;5.80;2.53;;;7.00;99.90;;;;;;4905096;29;20392;-73
2023/03/15 00:39:18;;;;;;;3.97;2.10;;;6.90;99.90;;;;;;4922594;29;20108;-73
2023/03/15 00:41:44;;;;;;;6.53;2.60;;;6.80;99.90;;;;;;4922997;29;20023;-73
2023/03/15 00:44:10;;;;;;;5.25;2.00;;;6.80;99.90;;;;;;4922500;29;20028;-73
2023/03/15 00:46:36;;;;;;;6.65;2.55;;;6.80;99.90;;;;;;4921810;29;20123;-73
2023/03/15 00:49:02;;;;;;;6.00;3.13;;;6.80;99.90;;;;;;4919180;29;20509;-73
2023/03/15 00:51:29;;;;;;;6.03;2.50;;;6.80;99.90;;;;;;4922312;29;20031;-73
2023/03/15 00:53:55;;;;;;;4.07;1.67;;;6.70;99.90;;;;;;4922085;29;20108;-74
2023/03/15 00:56:22;;;;;;;3.88;2.03;;;6.70;99.90;;;;;;4905254;29;20059;-72
2023/03/15 00:58:48;;;;;;;5.38;2.15;;;6.70;99.90;;;;;;4922328;29;20080;-75
2023/03/15 01:01:18;;;;;;;4.65;2.10;;;6.70;99.90;;;;;;4904533;29;20028;-75
2023/03/15 01:03:44;;;;;;;3.38;1.60;;;6.70;99.90;;;;;;4921821;29;20028;-75
2023/03/15 01:06:18;;;;;;;3.67;2.05;;;6.70;99.90;;;;;;4922354;29;20031;-75
2023/03/15 01:08:43;;;;;;;4.80;2.22;;;6.70;99.90;;;;;;4922185;29;20084;-75
2023/03/15 01:11:15;;;;;;;5.22;2.28;;;6.60;99.90;;;;;;4921820;29;20032;-75
2023/03/15 01:13:41;;;;;;;3.60;1.80;;;6.60;99.90;;;;;;4921940;29;20588;-75
2023/03/15 01:16:09;;;;;;;6.25;2.03;;;6.60;99.90;;;;;;4905048;29;20036;-74
2023/03/15 01:18:36;;;;;;;6.53;2.53;;;6.60;99.90;;;;;;4919818;29;20036;-73
2023/03/15 01:21:05;;;;;;;3.70;1.80;;;6.50;99.90;;;;;;4905002;29;20048;-73
2023/03/15 01:23:31;;;;;;;6.38;2.42;;;6.50;99.90;;;;;;4922224;29;20087;-73
2023/03/15 01:26:05;;;;;;;4.85;2.15;;;6.50;99.90;;;;;;4921984;29;20032;-73
2023/03/15 01:28:30;;;;;;;6.25;1.83;;;6.50;99.90;;;;;;4904656;29;20035;-74
2023/03/15 01:30:56;;;;;;;5.65;1.80;;;6.60;99.90;;;;;;4921371;29;20036;-74
2023/03/15 01:33:22;;;;;;;4.25;2.10;;;6.50;99.90;;;;;;4920274;29;20070;-74
2023/03/15 01:35:56;;;;;;;4.65;2.28;;;6.60;99.90;;;;;;4922012;29;20116;-74
2023/03/15 01:38:21;;;;;;;4.63;2.10;;;6.60;99.90;;;;;;4904695;29;20036;-72
2023/03/15 01:40:47;;;;;;;7.55;2.97;;;6.70;99.90;;;;;;4921292;29;20055;-72
2023/03/15 01:43:18;;;;;;;7.60;2.65;;;6.70;99.90;;;;;;4921930;29;20039;-72
2023/03/15 01:46:00;;;;;;;5.72;2.47;;;6.70;99.90;;;;;;4904335;29;20080;-72
2023/03/15 01:48:29;;;;;;;5.65;2.45;;;;;;;;;;4900159;29;20032;-73
2023/03/15 01:50:56;;;;;;;6.20;2.13;;;;;;;;;;4903400;29;20024;-72
2023/03/15 01:53:23;;;;;;;4.35;2.10;;;;;;;;;;4921391;29;20028;-72
2023/03/15 01:55:51;;;;;;;6.60;2.70;;;;;;;;;;4920418;29;20028;-73
2023/03/15 01:58:18;;;;;;;8.23;2.60;;;;;;;;;;4921046;29;20083;-73
2023/03/15 02:00:44;;;;;;;4.13;2.22;;;;;;;;;;4904032;29;20032;-73
2023/03/15 02:03:15;;;;;;;5.35;2.50;;;;;;;;;;4920621;29;20055;-73
2023/03/15 02:05:44;;;;;;;5.60;1.90;;;;;;;;;;4921247;29;20032;-73
2023/03/15 02:08:11;;;;;;;7.15;2.92;;;;;;;;;;4920763;29;20039;-73
2023/03/15 02:10:39;;;;;;;5.05;2.20;;;;;;;;;;4920757;29;20097;-75
2023/03/15 02:13:06;;;;;;;6.15;2.03;;;;;;;;;;4920892;29;20032;-75
2023/03/15 02:15:32;;;;;;;5.65;2.05;;;;;;;;;;4920377;29;20027;-75
2023/03/15 02:17:58;;;;;;;6.15;2.25;;;;;;;;;;4904129;29;20032;-76
2023/03/15 02:20:43;;;;;;;6.03;2.80;;;;;;;;;;4903907;29;20084;-76
2023/03/15 02:23:12;;;;;;;4.75;2.15;;;;;;;;;;4899419;29;20446;-76
2023/03/15 02:25:43;;;;;;;5.40;2.42;;;;;;;;;;4920542;29;20038;-75
2023/03/15 02:28:10;;;;;;;3.30;2.20;;;;;;;;;;4920593;29;20036;-75
2023/03/15 02:30:37;;;;;;;2.58;1.48;;;;;;;;;;4903510;29;20103;-76
2023/03/15 02:33:05;;;;;;;5.72;2.08;;;;;;;;;;4913223;29;20036;-73
2023/03/15 02:35:32;;;;;;;6.38;2.30;;;;;;;;;;4920490;29;20032;-73
2023/03/15 02:38:01;;;;;;;4.55;2.10;;;;;;;;;;4903219;29;20084;-74
2023/03/15 02:40:28;;;;;;;4.43;2.30;;;;;;;;;;4920314;29;20039;-72
2023/03/15 02:42:55;;;;;;;4.47;1.48;;;;;;;;;;4920329;29;20401;-72
2023/03/15 02:45:22;;;;;;;4.18;1.83;;;;;;;;;;4920504;29;20083;-73
2023/03/15 02:47:48;;;;;;;4.05;1.60;;;;;;;;;;4920204;29;21450;-73
2023/03/15 02:50:14;;;;;;;3.90;1.95;;;;;;;;;;4920224;29;20088;-73
2023/03/15 02:52:40;;;;;;;2.80;1.67;;;;;;;;;;4920032;29;20489;-73
2023/03/15 02:55:07;;;;;;;8.73;2.20;;;;;;;;;;4920273;29;20099;-72
2023/03/15 02:57:33;;;;;;;3.80;1.90;;;;;;;;;;4919823;29;20083;-74
2023/03/15 03:00:06;;;;;;;6.60;2.20;;;;;;;;;;4919051;29;20028;-74
2023/03/15 03:02:32;;;;;;;5.32;2.00;;;;;;;;;;4903156;29;20077;-73
2023/03/15 03:04:58;;;;;;;6.38;2.03;;;;;;;;;;4919830;29;20527;-73
2023/03/15 03:07:24;;;;;;;5.05;1.70;;;;;;;;;;4920156;29;20041;-73
2023/03/15 03:09:50;;;;;;;3.28;1.77;;;;;;;;;;4902573;29;20125;-74
2023/03/15 03:12:16;;;;;;;3.20;1.80;;;;;;;;;;4920034;29;20031;-73
2023/03/15 03:14:44;;;;;;;6.85;2.15;;;;;;;;;;4920163;29;20515;-74
2023/03/15 03:17:10;;;;;;;4.68;2.00;;;;;;;;;;4902807;29;20509;-73
2023/03/15 03:19:36;;;;;;;3.17;1.40;;;;;;;;;;4918938;29;20032;-73
2023/03/15 03:22:03;;;;;;;3.47;1.38;;;;;;;;;;4919947;29;20103;-73
2023/03/15 03:24:30;;;;;;;3.67;1.45;;;;;;;;;;4920081;29;20043;-73
2023/03/15 03:26:56;;;;;;;4.88;1.20;;;;;;;;;;4918603;29;20120;-73
2023/03/15 03:29:23;;;;;;;3.10;1.25;;;;;;;;;;4902798;29;20032;-73
2023/03/15 03:31:49;;;;;;;3.72;1.70;;;;;;;;;;4920335;29;20427;-73
2023/03/15 03:34:15;;;;;;;2.70;1.45;;;;;;;;;;4920455;29;20020;-73
2023/03/15 03:36:44;;;;;;;3.78;1.40;;;;;;;;;;4919855;29;20110;-74
2023/03/15 03:39:10;;;;;;;5.20;1.88;;;;;;;;;;4920147;29;20103;-74
2023/03/15 03:41:36;;;;;;;2.58;1.17;;;;;;;;;;4903013;29;20063;-73
2023/03/15 03:44:02;;;;;;;7.72;1.80;;;;;;;;;;4902799;29;20087;-73
2023/03/15 03:46:28;;;;;;;2.78;1.35;;;;;;;;;;4919791;29;20052;-72
2023/03/15 03:48:54;;;;;;;3.88;1.58;;;;;;;;;;4919778;29;20020;-74
2023/03/15 03:51:20;;;;;;;2.45;1.45;;;;;;;;;;4920053;29;20035;-73
2023/03/15 03:53:46;;;;;;;3.03;1.35;;;;;;;;;;4920190;29;20035;-75
2023/03/15 03:56:12;;;;;;;5.07;1.77;;;;;;;;;;4919924;29;20028;-74
2023/03/15 03:58:38;;;;;;;6.30;1.73;;;;;;;;;;4919153;29;20408;-74
2023/03/15 04:01:04;;;;;;;1.80;1.33;;;;;;;;;;4919688;29;20382;-74
2023/03/15 04:03:31;;;;;;;5.32;1.92;;;;;;;;;;4902806;29;20028;-72
2023/03/15 04:05:57;;;;;;;5.13;1.85;;;;;;;;;;4902003;29;20031;-72
2023/03/15 04:08:24;;;;;;;4.28;2.40;;;;;;;;;;4919937;29;20036;-73
2023/03/15 04:10:54;;;;;;;5.63;1.92;;;;;;;;;;4920849;29;20028;-74
2023/03/15 04:13:20;;;;;;;3.75;1.48;;;;;;;;;;4903836;29;20036;-74
2023/03/15 04:15:47;;;;;;;6.38;1.58;;;;;;;;;;4923207;29;20024;-74
2023/03/15 04:18:13;;;;;;;4.05;1.73;;;;;;;;;;4915856;29;20069;-74
2023/03/15 04:20:45;;;;;;;5.45;1.85;;;;;;;;;;4906034;29;20986;-74
2023/03/15 04:23:14;;;;;;;6.47;1.93;;;;;;;;;;4923324;29;20056;-73
2023/03/15 04:25:41;;;;;;;5.10;1.73;;;;;;;;;;4922240;29;20401;-73
2023/03/15 04:28:09;;;;;;;5.05;1.88;;;;;;;;;;4905792;29;20038;-72
2023/03/15 04:30:36;;;;;;;3.20;1.70;;;;;;;;;;4923106;29;20074;-73
2023/03/15 04:33:02;;;;;;;3.65;1.35;;;;;;;;;;4922229;29;20024;-74
2023/03/15 04:35:35;;;;;;;2.88;1.83;;;;;;;;;;4915501;29;20032;-72
2023/03/15 04:38:02;;;;;;;6.05;2.47;;;;;;;;;;4902554;29;20039;-73
2023/03/15 04:40:29;;;;;;;3.45;2.08;;;;;;;;;;4922471;29;20024;-73
2023/03/15 04:42:55;;;;;;;4.40;2.28;;;5.40;99.90;;;;;;4922746;29;20059;-74
2023/03/15 04:45:24;;;;;;;4.32;1.88;;;5.40;99.90;;;;;;4922220;29;20051;-73
2023/03/15 04:47:50;;;;;;;4.03;1.85;;;5.30;99.90;;;;;;4921746;29;20060;-73
2023/03/15 04:50:16;;;;;;;5.05;1.40;;;5.20;99.90;;;;;;4919834;29;20404;-73
2023/03/15 04:52:42;;;;;;;3.08;1.23;;;5.20;99.90;;;;;;4902920;29;20036;-73
2023/03/15 04:55:09;;;;;;;5.45;2.10;;;5.20;99.90;;;;;;4920935;29;20585;-73
2023/03/15 04:57:35;;;;;;;7.20;1.77;;;5.20;99.90;;;;;;4922103;29;20032;-73
2023/03/15 05:00:00;;;;;;;4.55;1.77;;;5.20;99.90;;;;;;4922371;29;20464;-72
2023/03/15 05:02:26;;;;;;;3.30;1.40;;;5.10;99.90;;;;;;4921881;29;20732;-72
2023/03/15 05:04:52;;;;;;;5.25;2.05;;;5.10;99.90;;;;;;4922093;29;20449;-73
2023/03/15 05:07:17;;;;;;;5.88;1.60;;;5.10;99.90;;;;;;4904846;29;20123;-72
2023/03/15 05:09:45;;;;;;;4.32;1.85;;;5.10;99.90;;;;;;4922427;29;20024;-73
2023/03/15 05:12:12;;;;;;;3.13;1.40;;;5.00;99.90;;;;;;4905086;29;20051;-73
2023/03/15 05:14:37;;;;;;;4.57;1.95;;;5.00;99.90;;;;;;4904350;29;20401;-73
2023/03/15 05:17:04;;;;;;;4.05;1.70;;;4.90;99.90;;;;;;4921915;29;20024;-73
2023/03/15 05:19:33;;;;;;;1.98;1.30;;;4.90;99.90;;;;;;4921720;29;20072;-73
2023/03/15 05:21:59;;;;;;;3.47;1.85;;;4.90;99.90;;;;;;4921575;29;20075;-73
2023/03/15 05:24:25;;;;;;;5.43;2.15;;;4.90;99.90;;;;;;4904680;29;20032;-72
2023/03/15 05:26:53;;;;;;;4.03;2.20;;;4.90;99.90;;;;;;4921579;29;20032;-73
2023/03/15 05:29:22;;;;;;;4.53;1.52;;;4.90;99.90;;;;;;4921991;29;20083;-73
2023/03/15 05:31:48;;;;;;;3.33;1.63;;;4.90;99.90;;;;;;4921370;29;20394;-72
2023/03/15 05:34:14;;;;;;;2.22;1.35;;;4.90;99.90;;;;;;4921327;29;20047;-72
2023/03/15 05:36:43;;;;;;;3.90;1.90;;;4.80;99.90;;;;;;4921408;29;20039;-72
2023/03/15 05:39:08;;;;;;;2.45;1.15;;;4.80;99.90;;;;;;4921732;29;20028;-73
2023/03/15 05:41:34;;;;;;;3.40;1.73;;;4.70;99.90;;;;;;4921211;29;20043;-73
2023/03/15 05:44:00;;;;;;;4.20;1.80;;;4.80;99.90;;;;;;4904594;29;20049;-73
2023/03/15 05:46:26;;;;;;;4.57;1.98;;;4.70;99.90;;;;;;4920452;29;20059;-72
2023/03/15 05:48:52;;;;;;;4.50;1.92;;;4.70;99.90;;;;;;4920889;29;20032;-73
2023/03/15 05:51:18;;;;;;;5.43;1.90;;;4.70;99.90;;;;;;4921543;29;20028;-74
2023/03/15 05:53:44;;;;;;;5.20;1.80;;;4.70;99.90;;;;;;4921110;29;20020;-74
2023/03/15 05:56:09;;;;;;;3.00;1.60;;;4.70;99.90;;;;;;4920350;29;20108;-74
2023/03/15 05:58:35;;;;;;;3.45;1.90;;;4.70;99.90;;;;;;4921122;29;20028;-73
2023/03/15 06:01:02;;;;;;;2.40;1.17;;;4.70;99.90;;;;;;4920935;29;20025;-73
2023/03/15 06:03:30;;;;;;;2.38;1.40;;;4.60;99.90;;;;;;4903874;29;20028;-74
2023/03/15 06:05:56;;;;;;;2.67;1.35;;;4.50;99.90;;;;;;4920550;29;20028;-73
2023/03/15 06:08:21;;;;;;;5.28;1.95;;;4.60;99.90;;;;;;4903408;29;20039;-73
2023/03/15 06:10:47;;;;;;;4.88;1.75;;;4.60;99.90;;;;;;4920736;29;20028;-73
2023/03/15 06:13:13;;;;;;;3.90;2.00;;;4.60;99.90;;;;;;4920949;29;20067;-73
2023/03/15 06:15:39;;;;;;;3.65;1.83;;;;;;;;;;4920428;29;20021;-73
2023/03/15 06:18:05;;;;;;;2.30;1.52;;;;;;;;;;4919398;29;20107;-74
2023/03/15 06:20:31;;;;;;;3.38;1.92;;;4.50;99.90;;;;;;4919929;29;20036;-74
2023/03/15 06:22:57;;;;;;;3.45;2.08;;;;;;;;;;4917803;29;20493;-74
2023/03/15 06:25:23;;;;;;;3.53;1.77;;;;;;;;;;4921248;29;20504;-74
2023/03/15 06:27:50;;;;;;;6.53;2.20;;;;;;;;;;4920694;29;20028;-73
2023/03/15 06:30:16;;;;;;;4.55;1.92;;;;;;;;;;4920104;29;20040;-74
2023/03/15 06:32:43;;;;;;;2.58;1.60;;;;;;;;;;4907037;29;20084;-74
2023/03/15 06:35:09;;;;;;;4.15;1.98;;;;;;;;;;4902906;29;20032;-73
2023/03/15 06:37:35;;;;;;;3.75;1.80;;;;;;;;;;4905544;29;20024;-73
2023/03/15 06:40:06;;;;;;;3.88;1.83;;;;;;;;;;4919221;29;20031;-74
2023/03/15 06:42:32;;;;;;;3.85;2.13;;;;;;;;;;4911802;29;20029;-73
2023/03/15 06:44:58;;;;;;;5.75;2.22;;;;;;;;;;4911539;29;20568;-73
2023/03/15 06:47:24;;;;;;;3.25;1.92;;;;;;;;;;4906555;29;20052;-73
2023/03/15 06:49:50;;;;;;;2.67;1.23;;;;;;;;;;4904234;29;20040;-73
2023/03/15 06:52:17;;;;;;;3.42;2.15;;;;;;;;;;4911707;29;20028;-72
2023/03/15 06:54:43;;;;;;;4.40;2.42;;;;;;;;;;4909663;29;20055;-72
2023/03/15 06:57:10;;;;;;;3.15;2.00;;;;;;;;;;4912323;29;20031;-73
2023/03/15 06:59:36;;;;;;;4.60;2.15;;;;;;;;;;4909803;29;20036;-73
2023/03/15 07:02:02;;;;;;;5.20;1.85;;;;;;;;;;4905908;29;20024;-73
2023/03/15 07:04:28;;;;;;;6.75;2.67;;;;;;;;;;4908868;29;20029;-73
2023/03/15 07:06:55;;;;;;;5.47;2.50;;;;;;;;;;4898632;29;20028;-73
2023/03/15 07:09:21;;;;;;;5.05;2.08;;;;;;;;;;4914785;29;20092;-72
2023/03/15 07:11:48;;;;;;;4.05;2.50;;;;;;;;;;4908096;29;20049;-72
2023/03/15 07:14:14;;;;;;;6.47;2.67;;;;;;;;;;4903427;29;20044;-72
2023/03/15 07:16:41;;;;;;;4.43;2.22;;;;;;;;;;4918997;29;20572;-74
2023/03/15 07:19:07;;;;;;;4.20;2.05;;;;;;;;;;4919468;29;20036;-72
2023/03/15 07:21:34;;;;;;;5.22;2.45;;;;;;;;;;4919171;29;20587;-73
2023/03/15 07:24:00;;;;;;;7.03;2.47;;;;;;;;;;4910945;29;20064;-73
2023/03/15 07:26:27;;;;;;;7.43;3.13;;;;;;;;;;4904618;29;20489;-73
2023/03/15 07:28:53;;;;;;;5.38;2.72;;;;;;;;;;4920441;29;20079;-73
2023/03/15 07:31:19;;;;;;;3.72;2.17;;;;;;;;;;4913574;29;20468;-74
2023/03/15 07:33:46;;;;;;;7.05;2.75;;;;;;;;;;4916106;29;20433;-74
2023/03/15 07:36:12;;;;;;;5.32;2.60;;;;;;;;;;4920347;29;20031;-74
2023/03/15 07:38:38;;;;;;;7.53;3.83;;;5.70;99.90;;;;;;4916628;29;20115;-69
2023/03/15 07:41:05;;;;;;;6.60;2.97;;;5.80;99.90;;;;;;4909981;29;20063;-77
2023/03/15 07:43:31;;;;;;;7.97;2.97;;;5.80;99.90;;;;;;4914168;29;20450;-75
2023/03/15 07:45:57;;;;;;;4.70;2.40;;;6.00;99.90;;;;;;4921631;29;20136;-80
2023/03/15 07:48:23;;;;;;;4.82;2.58;;;6.00;99.90;;;;;;4919382;29;20064;-78
2023/03/15 07:50:49;;;;;;;6.50;2.90;;;6.10;99.90;;;;;;4919882;29;20028;-79
2023/03/15 07:53:14;;;;;;;8.00;3.70;;;6.10;99.90;;;;;;4921026;29;20032;-73
2023/03/15 07:55:40;;;;;;;6.20;3.13;;;6.20;99.90;;;;;;4921707;29;20020;-72
2023/03/15 07:58:06;;;;;;;5.88;3.28;;;6.20;99.90;;;;;;4923936;29;20050;-71
2023/03/15 08:00:32;;;;;;;7.63;3.05;;;6.20;99.90;;;;;;4923942;29;20032;-71
2023/03/15 08:02:58;;;;;;;6.80;3.65;;;6.30;99.90;;;;;;4911339;29;20033;-72
2023/03/15 08:05:24;;;;;;;4.45;2.42;;;6.30;99.90;;;;;;4904996;29;20565;-71
2023/03/15 08:07:50;;;;;;;6.85;2.30;;;6.40;99.90;;;;;;4905052;29;20032;-71
2023/03/15 08:10:17;;;;;;;4.93;2.70;;;6.40;99.90;;;;;;4917379;29;20028;-71
2023/03/15 08:12:43;;;;;;;3.92;2.28;;;6.50;99.90;;;;;;4924153;29;20060;-72
2023/03/15 08:15:14;;;;;;;5.70;2.38;;;6.60;99.90;;;;;;4921723;29;20051;-73
2023/03/15 08:17:40;;;;;;;8.70;2.92;;;6.60;99.90;;;;;;4922678;29;20036;-73
2023/03/15 08:20:10;;;;;;;8.70;3.15;;;6.70;99.90;;;;;;4923099;29;20055;-73
2023/03/15 08:22:37;;;;;;;12.50;3.10;;;6.70;99.90;;;;;;4916884;29;20404;-69
2023/03/15 08:25:03;;;;;;;5.20;2.40;;;6.80;99.90;;;;;;4923192;29;20028;-70
2023/03/15 08:27:28;;;;;;;5.63;2.30;;;6.80;99.90;;;;;;4923641;29;20107;-69
2023/03/15 08:29:54;;;;;;;8.73;3.15;;;6.90;99.90;;;;;;4923733;29;20021;-69
2023/03/15 08:32:20;;;;;;;4.22;2.30;;;7.00;99.90;;;;;;4923378;29;20032;-69
2023/03/15 08:34:46;;;;;;;8.23;2.60;;;7.10;99.90;;;;;;4921973;29;20020;-69
2023/03/15 08:37:12;;;;;;;6.45;2.63;;;7.20;99.90;;;;;;4923573;29;20069;-69
2023/03/15 08:39:38;;;;;;;4.28;2.28;;;7.40;99.90;;;;;;4923499;29;20036;-70
2023/03/15 08:42:04;;;;;;;8.60;2.63;;;7.60;99.90;;;;;;4923442;29;20087;-69
2023/03/15 08:44:30;;;;;;;5.28;2.28;;;7.60;99.90;;;;;;4923563;29;20068;-70
2023/03/15 08:46:55;;;;;;;9.20;3.10;;;7.70;99.90;;;;;;4910076;29;20041;-70
2023/03/15 08:49:21;;;;;;;5.30;2.20;;;7.80;99.90;;;;;;4916505;29;20049;-70
2023/03/15 08:51:47;;;;;;;4.97;1.98;;;7.80;99.90;;;;;;4917128;29;20035;-70
2023/03/15 08:54:13;;;;;;;7.03;2.35;;;7.90;99.90;;;;;;4923265;29;20477;-69
2023/03/15 08:56:40;;;;;;;7.30;2.00;;;7.80;99.90;;;;;;4922533;29;20031;-69
2023/03/15 08:59:06;;;;;;;6.63;2.15;;;7.90;99.90;;;;;;4923311;29;20064;-70
2023/03/15 09:01:32;;;;;;;4.45;2.15;;;7.90;99.90;;;;;;4923273;29;20067;-70
2023/03/15 09:03:58;;;;;;;4.68;2.00;;;7.90;99.90;;;;;;4922936;29;20469;-70
2023/03/15 09:06:23;;;;;;;5.80;1.67;;;8.00;99.90;;;;;;4922950;29;20060;-69
2023/03/15 09:08:49;;;;;;;5.28;1.90;;;8.00;99.90;;;;;;4922801;29;20556;-70
2023/03/15 09:11:15;;;;;;;7.40;1.95;;;8.10;99.90;;;;;;4922999;29;20032;-70
2023/03/15 09:13:40;;;;;;;8.70;1.83;;;8.20;99.90;;;;;;4921659;29;20036;-70
2023/03/15 09:16:06;;;;;;;6.18;2.30;;;8.20;99.90;;;;;;4921392;29;20438;-69
2023/03/15 09:18:32;;;;;;;10.55;2.40;;;8.30;99.90;;;;;;4921336;29;20024;-71
2023/03/15 09:20:58;;;;;;;11.13;2.78;;;8.40;99.90;;;;;;4922852;29;20079;-70
2023/03/15 09:23:24;;;;;;;8.68;2.42;;;8.40;99.90;;;;;;4921400;29;20032;-70
2023/03/15 09:25:49;;;;;;;7.18;2.38;;;8.50;99.90;;;;;;4922704;29;20087;-70
2023/03/15 09:28:15;;;;;;;6.18;2.35;;;8.60;99.90;;;;;;4921517;29;20442;-70
2023/03/15 09:30:41;;;;;;;5.78;2.20;;;8.60;99.90;;;;;;4922826;29;20024;-70
2023/03/15 09:33:08;;;;;;;5.28;1.75;;;8.70;99.90;;;;;;4922394;29;20401;-70
2023/03/15 09:35:33;;;;;;;8.50;2.55;;;8.70;99.90;;;;;;4921166;29;20082;-69
2023/03/15 09:37:59;;;;;;;6.45;1.80;;;8.80;99.90;;;;;;4921210;29;20096;-70
2023/03/15 09:40:37;;;;;;;6.57;1.95;;;8.90;99.90;;;;;;4922392;29;20108;-70
2023/03/15 09:43:06;;;;;;;5.38;1.83;;;8.90;99.90;;;;;;4922487;29;20024;-70
2023/03/15 09:46:08;;;;;;;4.22;1.77;;;9.00;99.90;;;;;;4922087;29;20044;-70
2023/03/15 09:48:55;;;;;;;5.85;1.92;;;9.20;99.90;;;;;;4918711;29;20401;-70
2023/03/15 09:51:47;;;;;;;8.23;2.42;;;9.30;99.90;;;;;;4912554;29;20036;-70
2023/03/15 09:54:15;;;;;;;6.40;2.10;;;9.40;99.90;;;;;;4909691;29;20017;-70
2023/03/15 09:56:58;;;;;;;6.43;1.77;;;9.50;99.90;;;;;;4920820;29;20028;-70
2023/03/15 09:59:36;;;;;;;5.33;1.70;;;9.60;99.90;;;;;;4922259;29;20504;-70
2023/03/15 10:02:16;;;;;;;4.57;1.25;;;9.90;99.90;;;;;;4922193;29;20276;-70
2023/03/15 10:04:43;;;;;;;6.85;1.30;;;10.10;99.90;;;;;;4921956;29;20082;-70
2023/03/15 10:07:14;;;;;;;7.63;1.35;;;10.30;99.90;;;;;;4920404;29;20047;-71
2023/03/15 10:09:39;;;;;;;5.32;1.10;;;10.50;99.90;;;;;;4921879;29;20021;-70
2023/03/15 10:12:10;;;;;;;7.03;1.40;;;10.60;99.90;;;;;;4921981;29;20035;-70
2023/03/15 10:14:57;;;;;;;4.00;0.98;;;10.80;99.90;;;;;;4920276;29;20524;-70
2023/03/15 10:17:52;;;;;;;3.72;1.05;;;10.90;99.90;;;;;;4921644;29;20140;-70
2023/03/15 10:20:24;;;;;;;5.80;0.90;;;11.00;99.90;;;;;;4896931;29;20529;-70
2023/03/15 10:23:05;;;;;;;3.70;0.80;;;11.00;99.90;;;;;;4902684;29;20028;-71
2023/03/15 10:25:32;;;;;;;3.70;0.90;;;11.10;99.90;;;;;;4902537;29;20296;-70
2023/03/15 10:28:08;;;;;;;3.28;0.82;;;11.10;99.90;;;;;;4902678;29;20021;-70
2023/03/15 10:30:37;;;;;;;4.93;1.10;;;11.10;99.90;;;;;;4902849;29;20039;-71
2023/03/15 10:33:25;;;;;;;7.70;1.40;;;11.10;99.90;;;;;;4901070;29;20029;-71
2023/03/15 10:35:50;;;;;;;5.38;1.05;;;11.20;99.90;;;;;;4917344;29;20032;-70
2023/03/15 10:38:22;;;;;;;4.40;0.90;;;11.20;99.90;;;;;;4921526;29;20091;-70
2023/03/15 10:40:49;;;;;;;4.32;0.80;;;11.20;99.90;;;;;;4921048;29;20028;-70
2023/03/15 10:43:54;;;;;;;3.55;1.08;;;11.20;99.90;;;;;;4921261;29;20111;-71
2023/03/15 10:46:22;;;;;;;4.45;1.00;;;11.00;99.90;;;;;;4915176;29;20048;-70
2023/03/15 10:48:59;;;;;;;3.28;1.00;;;11.00;99.90;;;;;;4917834;29;20058;-70
2023/03/15 10:51:30;;;;;;;6.35;1.10;;;11.00;99.90;;;;;;4912013;29;20036;-70
2023/03/15 10:53:59;;;;;;;3.25;1.08;;;11.00;99.90;;;;;;4902149;29;20036;-70
2023/03/15 10:56:27;;;;;;;6.50;1.17;;;11.00;99.90;;;;;;4902108;29;20028;-71
2023/03/15 10:58:56;;;;;;;3.75;1.05;;;11.10;99.90;;;;;;4900710;29;20029;-71
2023/03/15 11:01:27;;;;;;;5.47;1.15;;;11.10;99.90;;;;;;4901888;29;20343;-70
2023/03/15 11:04:20;;;;;;;4.47;1.20;;;11.10;99.90;;;;;;4901802;29;20402;-70
2023/03/15 11:06:57;;;;;;;3.50;0.98;;;11.10;99.90;;;;;;4898804;29;20040;-71
2023/03/15 11:09:25;;;;;;;4.20;0.88;;;11.20;99.90;;;;;;4901419;29;20067;-73
2023/03/15 11:11:57;;;;;;;4.45;0.90;;;11.20;99.90;;;;;;4901544;29;20025;-72
2023/03/15 11:14:23;;;;;;;3.08;0.98;;;11.30;99.90;;;;;;4904122;29;20032;-72
2023/03/15 11:16:55;;;;;;;5.68;1.23;;;11.40;99.90;;;;;;4919335;29;20077;-72
2023/03/15 11:19:25;;;;;;;3.88;1.00;;;11.60;99.90;;;;;;4916943;29;20450;-71
2023/03/15 11:21:51;;;;;;;5.07;1.10;;;11.70;99.90;;;;;;4920591;29;20056;-71
2023/03/15 11:24:27;;;;;;;3.72;1.27;;;11.80;99.90;;;;;;4919237;29;20445;-72
2023/03/15 11:26:54;;;;;;;4.75;1.05;;;11.80;99.90;;;;;;4920481;29;20028;-71
2023/03/15 11:29:26;;;;;;;3.65;0.70;;;11.70;99.90;;;;;;4920293;29;20052;-72
2023/03/15 11:31:52;;;;;;;8.07;1.40;;;11.70;99.90;;;;;;4919407;29;20028;-69
2023/03/15 11:34:38;;;;;;;5.30;1.05;;;11.70;99.90;;;;;;4920397;29;20035;-69
2023/03/15 11:37:21;;;;;;;3.53;1.00;;;11.80;99.90;;;;;;4908620;29;20036;-71
2023/03/15 11:39:57;;;;;;;5.68;0.75;;;12.00;99.90;;;;;;4907266;29;20044;-68
2023/03/15 11:42:31;;;;;;;3.25;1.17;;;12.10;99.90;;;;;;4911797;29;20036;-67
2023/03/15 11:45:02;;;;;;;4.75;1.05;;;12.30;99.90;;;;;;4912845;29;20029;-70
2023/03/15 11:47:38;;;;;;;3.55;0.88;;;12.30;99.90;;;;;;4914625;29;20119;-70
2023/03/15 11:50:04;;;;;;;5.75;0.98;;;12.40;99.90;;;;;;4909193;29;20134;-72
2023/03/15 11:52:30;;;;;;;2.88;0.80;;;12.50;99.90;;;;;;4910937;29;20481;-69
2023/03/15 11:55:02;;;;;;;4.78;1.00;;;12.60;99.90;;;;;;4913487;29;20024;-70
2023/03/15 11:57:28;;;;;;;5.97;0.85;;;12.60;99.90;;;;;;4905646;29;20017;-70
2023/03/15 12:00:14;;;;;;;3.72;0.70;;;12.50;99.90;;;;;;4920485;29;20035;-71
2023/03/15 12:02:49;;;;;;;4.97;0.80;;;12.60;99.90;;;;;;4920269;29;20053;-69
2023/03/15 12:05:43;;;;;;;5.65;0.80;;;12.60;99.90;;;;;;4920292;29;20039;-72
2023/03/15 12:08:17;;;;;;;2.42;0.50;;;12.60;99.90;;;;;;4920386;29;20052;-71
2023/03/15 12:10:45;;;;;;;3.63;0.60;;;12.60;99.90;;;;;;4920204;29;20024;-72
2023/03/15 12:13:49;;;;;;;3.45;0.80;;;12.80;99.90;;;;;;4920341;29;20052;-71
2023/03/15 12:16:18;;;;;;;;;;;12.80;99.90;;;;;;4903295;29;20068;-72
2023/03/15 12:18:44;;;;;;;3.10;0.88;;;12.90;99.90;;;;;;4901224;29;20365;-72
2023/03/15 12:21:13;;;;;;;3.58;0.70;;;12.90;99.90;;;;;;4901358;29;20035;-72
2023/03/15 12:23:46;;;;;;;4.57;0.90;;;13.00;99.90;;;;;;4899915;29;20073;-72
2023/03/15 12:26:36;;;;;;;4.03;0.82;;;13.00;99.90;;;;;;4908121;29;20032;-74
2023/03/15 12:29:07;;;;;;;6.18;0.90;;;13.10;99.90;;;;;;4917039;29;20118;-73
2023/03/15 12:31:59;;;;;;;5.47;0.85;;;13.20;99.90;;;;;;4904668;29;20024;-74
2023/03/15 12:34:54;;;;;;;3.50;0.77;;;13.40;99.90;;;;;;4915070;29;20028;-72
2023/03/15 12:37:23;;;;;;;5.47;0.77;;;13.50;99.90;;;;;;4918315;29;20388;-74
2023/03/15 12:40:30;;;;;;;4.25;0.98;;;13.60;99.90;;;;;;4912287;29;20037;-73
2023/03/15 12:42:56;;;;;;;3.53;0.63;;;13.70;99.90;;;;;;4908371;29;20035;-73
2023/03/15 12:45:48;;;;;;;3.65;1.00;;;13.80;99.90;;;;;;4918816;29;20036;-74
2023/03/15 12:48:20;;;;;;;5.15;1.00;;;13.90;99.90;;;;;;4910746;29;20048;-72
2023/03/15 12:50:46;;;;;;;3.40;1.20;;;14.00;99.90;;;;;;4903846;29;22377;-68
2023/03/15 12:53:35;;;;;;;3.42;1.02;;;14.00;99.90;;;;;;4914802;29;20111;-69
2023/03/15 12:56:19;;;;;;;4.47;1.38;;;14.10;99.90;;;;;;4916209;29;20047;-68
2023/03/15 12:58:50;;;;;;;8.82;1.33;;;14.20;99.90;;;;;;4906246;29;20104;-68
2023/03/15 13:01:17;;;;;;;6.32;1.05;;;14.30;99.90;;;;;;4912018;29;20032;-69
2023/03/15 13:03:42;;;;;;;5.72;1.10;;;14.30;99.90;;;;;;4919193;29;20025;-69
2023/03/15 13:06:32;;;;;;;6.53;1.25;;;14.30;99.90;;;;;;4918318;29;20032;-69
2023/03/15 13:09:28;;;;;;;2.75;0.70;;;14.30;99.90;;;;;;4916567;29;20083;-68
2023/03/15 13:12:10;;;;;;;3.10;1.08;;;14.30;99.90;;;;;;4918421;29;20500;-69
2023/03/15 13:14:39;;;;;;;3.10;0.88;;;14.40;99.90;;;;;;4911126;29;20035;-70
2023/03/15 13:17:34;;;;;;;6.05;1.25;;;14.40;99.50;;;;;;4920429;29;20031;-68
2023/03/15 13:20:22;;;;;;;5.50;1.00;;;14.40;99.90;;;;;;4918884;29;20039;-72
2023/03/15 13:23:02;;;;;;;3.78;0.90;;;14.50;99.90;;;;;;4916739;29;20042;-70
2023/03/15 13:25:53;;;;;;;4.97;1.20;;;14.30;99.90;;;;;;4916396;29;20494;-69
2023/03/15 13:28:42;;;;;;;2.90;0.75;;;14.40;99.90;;;;;;4917988;29;20092;-69
2023/03/15 13:31:13;;;;;;;4.45;0.90;;;14.40;99.90;;;;;;4910745;29;20064;-68
2023/03/15 13:33:39;;;;;;;3.63;0.90;;;14.40;98.90;;;;;;4914729;29;20049;-67
2023/03/15 13:36:16;;;;;;;4.47;0.80;;;14.20;97.70;;;;;;4916736;29;20084;-69